createdAt,value
2017-10-23T00:02:50.726Z,1.40
2017-10-23T00:08:18.851Z,1.23
2017-10-23T00:13:47.741Z,1.20
2017-10-23T00:19:16.628Z,1.37
2017-10-23T00:24:44.761Z,1.20
2017-10-23T00:30:12.882Z,1.50
2017-10-23T00:35:41.004Z,1.40
2017-10-23T00:41:09.145Z,1.60
2017-10-23T00:46:37.281Z,1.47
2017-10-23T00:52:06.171Z,1.50
2017-10-23T00:57:34.339Z,1.67
2017-10-23T01:03:02.452Z,1.60
2017-10-23T01:08:30.581Z,1.73
2017-10-23T01:13:58.741Z,1.30
2017-10-23T01:19:26.872Z,1.30
2017-10-23T01:24:59.982Z,2.10
2017-10-23T01:30:28.117Z,1.67
2017-10-23T01:35:56.247Z,1.77
2017-10-23T01:41:24.367Z,1.37
2017-10-23T01:46:52.504Z,1.40
2017-10-23T01:52:20.641Z,1.30
2017-10-23T01:57:48.773Z,1.20
2017-10-23T02:03:16.903Z,1.80
2017-10-23T02:08:45.027Z,1.33
2017-10-23T02:14:13.151Z,1.40
2017-10-23T02:19:41.386Z,2.50
2017-10-23T02:25:11.228Z,1.17
2017-10-23T02:30:39.426Z,1.40
2017-10-23T02:36:07.548Z,1.40
2017-10-23T02:41:35.781Z,1.63
2017-10-23T02:47:03.926Z,1.50
2017-10-23T02:52:32.076Z,1.40
2017-10-23T02:58:00.997Z,1.30
2017-10-23T03:03:29.131Z,2.23
2017-10-23T03:08:57.273Z,1.33
2017-10-23T03:14:26.185Z,1.73
2017-10-23T03:19:54.306Z,1.73
2017-10-23T03:25:23.217Z,1.50
2017-10-23T03:30:51.361Z,2.70
2017-10-23T03:36:19.505Z,1.37
2017-10-23T03:41:48.390Z,2.10
2017-10-23T03:47:16.545Z,2.03
2017-10-23T03:52:44.677Z,1.33
2017-10-23T03:58:13.582Z,1.40
2017-10-23T04:03:41.727Z,2.03
2017-10-23T04:09:09.858Z,1.30
2017-10-23T04:14:37.996Z,1.67
2017-10-23T04:20:06.119Z,1.40
2017-10-23T04:25:34.253Z,1.63
2017-10-23T04:31:03.177Z,1.20
2017-10-23T04:36:31.337Z,1.30
2017-10-23T04:41:59.500Z,1.90
2017-10-23T04:47:27.688Z,1.20
2017-10-23T04:52:56.584Z,1.70
2017-10-23T04:58:24.728Z,1.50
2017-10-23T05:03:52.902Z,1.50
2017-10-23T05:09:21.030Z,2.00
2017-10-23T05:14:49.165Z,1.60
2017-10-23T05:20:17.304Z,1.70
2017-10-23T05:25:45.465Z,1.30
2017-10-23T05:31:13.618Z,1.27
2017-10-23T05:36:41.750Z,1.30
2017-10-23T05:42:09.872Z,1.57
2017-10-23T05:47:38.016Z,1.30
2017-10-23T05:53:06.138Z,1.40
2017-10-23T05:58:34.287Z,1.40
2017-10-23T06:04:02.430Z,1.67
2017-10-23T06:09:30.602Z,2.10
2017-10-23T06:14:58.766Z,1.50
2017-10-23T06:20:26.887Z,1.67
2017-10-23T06:25:55.031Z,2.00
2017-10-23T06:31:23.169Z,1.10
2017-10-23T06:36:51.352Z,1.50
2017-10-23T06:42:19.482Z,2.00
2017-10-23T06:47:47.608Z,1.97
2017-10-23T06:53:15.775Z,1.77
2017-10-23T06:58:43.928Z,2.10
2017-10-23T07:04:12.059Z,1.77
2017-10-23T07:09:40.197Z,1.67
2017-10-23T07:15:10.299Z,1.80
2017-10-23T07:20:38.432Z,1.70
2017-10-23T07:26:06.563Z,1.53
2017-10-23T07:31:35.870Z,1.60
2017-10-23T07:37:04.038Z,1.70
2017-10-23T07:42:32.358Z,1.60
2017-10-23T07:48:00.587Z,1.43
2017-10-23T07:53:29.488Z,1.77
2017-10-23T07:58:57.631Z,1.90
2017-10-23T08:04:26.523Z,1.97
2017-10-23T08:09:54.660Z,2.10
2017-10-23T08:15:22.786Z,1.63
2017-10-23T08:20:50.929Z,2.67
2017-10-23T08:26:19.063Z,2.23
2017-10-23T08:31:47.319Z,2.07
2017-10-23T08:37:15.443Z,2.67
2017-10-23T08:42:43.605Z,2.70
2017-10-23T08:48:12.517Z,2.60
2017-10-23T08:53:40.669Z,3.03
2017-10-23T08:59:08.806Z,3.00
2017-10-23T09:04:36.996Z,2.80
2017-10-23T09:10:05.125Z,2.50
2017-10-23T09:15:34.329Z,2.13
2017-10-23T09:21:02.523Z,2.20
2017-10-23T09:26:30.676Z,2.30
2017-10-23T09:31:58.805Z,2.03
2017-10-23T09:37:26.950Z,1.83
2017-10-23T09:42:55.087Z,2.00
2017-10-23T09:48:24.006Z,2.17
2017-10-23T09:53:52.157Z,1.83
2017-10-23T09:59:20.279Z,1.90
2017-10-23T10:04:48.449Z,2.17
2017-10-23T10:10:16.614Z,1.97
2017-10-23T10:15:44.771Z,2.53
2017-10-23T10:21:12.936Z,1.77
2017-10-23T10:26:41.059Z,2.47
2017-10-23T10:32:09.956Z,1.70
2017-10-23T10:37:38.086Z,1.70
2017-10-23T10:43:06.215Z,1.80
2017-10-23T10:48:34.366Z,2.10
2017-10-23T10:54:02.507Z,1.60
2017-10-23T10:59:30.648Z,1.90
2017-10-23T11:04:58.829Z,2.20
2017-10-23T11:10:26.994Z,1.90
2017-10-23T11:15:55.140Z,1.90
2017-10-23T11:21:23.282Z,1.80
2017-10-23T11:26:51.419Z,1.80
2017-10-23T11:32:20.319Z,1.73
2017-10-23T11:37:48.473Z,2.43
2017-10-23T11:43:16.591Z,1.80
2017-10-23T11:48:44.730Z,2.23
2017-10-23T11:54:12.872Z,2.07
2017-10-23T11:59:41.006Z,1.40
2017-10-23T12:05:09.148Z,1.97
2017-10-23T12:10:37.276Z,1.47
2017-10-23T12:16:07.199Z,2.00
2017-10-23T12:21:35.353Z,1.67
2017-10-23T12:27:04.310Z,1.63
2017-10-23T12:32:32.524Z,1.50
2017-10-23T12:38:00.707Z,2.20
2017-10-23T12:43:28.852Z,2.50
2017-10-23T12:48:57.013Z,2.20
2017-10-23T12:54:25.170Z,3.00
2017-10-23T12:59:53.331Z,2.13
2017-10-23T13:05:21.463Z,2.13
2017-10-23T13:10:50.007Z,3.33
2017-10-23T13:16:18.279Z,2.20
2017-10-23T13:21:47.104Z,2.77
2017-10-23T13:27:15.314Z,2.90
2017-10-23T13:32:43.557Z,3.30
2017-10-23T13:38:11.802Z,2.97
2017-10-23T13:43:40.852Z,3.83
2017-10-23T13:49:09.018Z,1.80
2017-10-23T13:54:46.200Z,2.47
2017-10-23T14:00:15.161Z,2.20
2017-10-23T14:05:43.318Z,1.77
2017-10-23T14:11:11.526Z,2.30
2017-10-23T14:16:40.435Z,2.40
2017-10-23T14:22:08.584Z,2.67
2017-10-23T14:27:36.733Z,2.87
2017-10-23T14:33:04.945Z,2.60
2017-10-23T14:38:33.126Z,3.23
2017-10-23T14:44:02.028Z,2.87
2017-10-23T14:49:30.201Z,2.50
2017-10-23T14:54:58.430Z,2.13
2017-10-23T15:00:27.352Z,2.70
2017-10-23T15:05:55.523Z,2.57
2017-10-23T15:11:24.474Z,2.90
2017-10-23T15:16:52.637Z,2.20
2017-10-23T15:22:20.876Z,2.10
2017-10-23T15:27:49.018Z,2.60
2017-10-23T15:33:17.216Z,1.83
2017-10-23T15:38:45.355Z,2.27
2017-10-23T15:44:14.268Z,2.10
2017-10-23T15:49:42.458Z,2.10
2017-10-23T15:55:11.357Z,2.03
2017-10-23T16:00:39.501Z,3.00
2017-10-23T16:06:07.629Z,2.07
2017-10-23T16:11:35.787Z,2.33
2017-10-23T16:17:04.115Z,2.70
2017-10-23T16:22:32.379Z,2.90
2017-10-23T16:28:00.702Z,2.27
2017-10-23T16:33:28.985Z,3.40
2017-10-23T16:38:57.111Z,3.17
2017-10-23T16:44:26.051Z,3.83
2017-10-23T16:49:55.120Z,3.70
2017-10-23T16:55:23.311Z,3.87
2017-10-23T17:00:52.231Z,3.70
2017-10-23T17:06:20.374Z,3.40
2017-10-23T17:11:48.502Z,4.33
2017-10-23T17:17:17.430Z,3.93
2017-10-23T17:22:45.804Z,4.33
2017-10-23T17:28:13.931Z,5.20
2017-10-23T17:33:42.184Z,3.80
2017-10-23T17:39:10.388Z,3.70
2017-10-23T17:44:38.532Z,3.80
2017-10-23T17:50:06.687Z,3.87
2017-10-23T17:55:34.834Z,3.80
2017-10-23T18:01:03.016Z,4.10
2017-10-23T18:06:31.168Z,4.07
2017-10-23T18:11:59.438Z,4.27
2017-10-23T18:17:27.595Z,3.60
2017-10-23T18:22:55.805Z,3.33
2017-10-23T18:28:23.936Z,2.90
2017-10-23T18:33:52.084Z,3.37
2017-10-23T18:39:21.119Z,2.73
2017-10-23T18:44:49.352Z,3.00
2017-10-23T18:50:18.250Z,3.70
2017-10-23T18:55:46.461Z,3.73
2017-10-23T19:01:14.599Z,3.43
2017-10-23T19:06:42.900Z,4.00
2017-10-23T19:12:11.787Z,3.83
2017-10-23T19:17:39.929Z,2.87
2017-10-23T19:23:08.869Z,4.40
2017-10-23T19:28:37.801Z,3.80
2017-10-23T19:34:06.061Z,3.10
2017-10-23T19:39:34.187Z,3.70
2017-10-23T19:45:03.097Z,3.87
2017-10-23T19:50:31.326Z,3.10
2017-10-23T19:56:00.319Z,3.40
2017-10-23T20:01:29.309Z,4.50
2017-10-23T20:06:57.454Z,3.67
2017-10-23T20:12:25.628Z,3.23
2017-10-23T20:17:53.750Z,3.90
2017-10-23T20:23:22.660Z,3.97
2017-10-23T20:28:50.779Z,2.70
2017-10-23T20:34:18.913Z,4.07
2017-10-23T20:39:47.066Z,3.60
2017-10-23T20:45:15.246Z,4.43
2017-10-23T20:50:43.379Z,3.50
2017-10-23T20:56:11.560Z,3.53
2017-10-23T21:01:39.740Z,3.60
2017-10-23T21:07:08.631Z,4.20
2017-10-23T21:12:36.885Z,3.70
2017-10-23T21:18:05.027Z,3.67
2017-10-23T21:23:33.948Z,3.00
2017-10-23T21:29:02.863Z,2.90
2017-10-23T21:34:31.021Z,2.80
2017-10-23T21:39:59.168Z,3.00
2017-10-23T21:45:27.306Z,3.07
2017-10-23T21:50:55.473Z,3.20
2017-10-23T21:56:23.620Z,3.90
2017-10-23T22:01:51.746Z,4.17
2017-10-23T22:07:19.881Z,3.60
2017-10-23T22:12:48.001Z,3.60
2017-10-23T22:18:16.146Z,4.63
2017-10-23T22:23:44.343Z,3.27
2017-10-23T22:29:12.485Z,3.10
2017-10-23T22:34:40.612Z,3.30
2017-10-23T22:40:08.742Z,3.23
2017-10-23T22:45:42.375Z,3.80
2017-10-23T22:51:10.512Z,3.63
2017-10-23T22:56:38.648Z,4.20
2017-10-23T23:02:06.784Z,3.13
2017-10-23T23:07:35.675Z,4.00
2017-10-23T23:13:04.579Z,2.90
2017-10-23T23:18:32.732Z,4.17
2017-10-23T23:24:00.877Z,3.73
2017-10-23T23:29:29.026Z,4.23
2017-10-23T23:34:57.939Z,3.70
2017-10-23T23:40:27.007Z,3.77
2017-10-23T23:45:55.144Z,2.87
2017-10-23T23:51:23.284Z,3.10
2017-10-23T23:56:52.195Z,3.67
